CEB5056 RPLL-RJTT
Flight info
| Callsign | CEB5056 |
|---|---|
| Flight time | N/A |
| Altitude | 39000 |
| Route | CAB2R CAB N884 ALBAX Y533 AZAMA Y57 SUKBO Y571 BILLY Y21 AKSEL |
| Aircraft | A339/H-SADE1E2E3GHIJ3J5M1P2RWXY/LB2D1 |
Departure
| Time | 2026-04-30 21:47 |
|---|---|
| Airport | Ninoy Aquino International Airport (RPLL) |
Arrival
| Time | N/A |
|---|---|
| Airport | Tokyo Haneda International Airport (RJTT) |
| Time | Latitude | Longitude | Altitude | Speed | Heading |
|---|---|---|---|---|---|
| 2026-04-30 21:13 | 14.51844 | 121.01314 | 87 ft | 0 kts | 46° |
| 2026-04-30 21:31 | 14.51832 | 121.01302 | 87 ft | 2 kts | 46° |
| 2026-04-30 21:31 | 14.51813 | 121.01280 | 87 ft | 2 kts | 63° |
| 2026-04-30 21:32 | 14.51806 | 121.01253 | 87 ft | 2 kts | 91° |
| 2026-04-30 21:32 | 14.51807 | 121.01240 | 87 ft | 2 kts | 103° |
| 2026-04-30 21:32 | 14.51811 | 121.01227 | 87 ft | 2 kts | 116° |
| 2026-04-30 21:32 | 14.51817 | 121.01216 | 87 ft | 2 kts | 128° |
| 2026-04-30 21:33 | 14.51826 | 121.01205 | 87 ft | 2 kts | 137° |
| 2026-04-30 21:33 | 14.51832 | 121.01200 | 87 ft | 0 kts | 136° |
| 2026-04-30 21:37 | 14.51820 | 121.01211 | 87 ft | 3 kts | 136° |
| 2026-04-30 21:37 | 14.51804 | 121.01228 | 87 ft | 5 kts | 135° |
| 2026-04-30 21:37 | 14.51778 | 121.01253 | 86 ft | 6 kts | 136° |
| 2026-04-30 21:37 | 14.51755 | 121.01278 | 86 ft | 5 kts | 132° |
| 2026-04-30 21:38 | 14.51735 | 121.01302 | 87 ft | 4 kts | 132° |
| 2026-04-30 21:38 | 14.51715 | 121.01317 | 87 ft | 5 kts | 152° |
| 2026-04-30 21:38 | 14.51685 | 121.01323 | 87 ft | 4 kts | 181° |
| 2026-04-30 21:38 | 14.51666 | 121.01318 | 87 ft | 2 kts | 195° |
| 2026-04-30 21:39 | 14.51627 | 121.01321 | 86 ft | 9 kts | 162° |
| 2026-04-30 21:39 | 14.51574 | 121.01363 | 87 ft | 10 kts | 135° |
| 2026-04-30 21:39 | 14.51514 | 121.01425 | 87 ft | 10 kts | 134° |
| 2026-04-30 21:39 | 14.51446 | 121.01496 | 86 ft | 11 kts | 135° |
| 2026-04-30 21:40 | 14.51391 | 121.01553 | 86 ft | 12 kts | 135° |
| 2026-04-30 21:40 | 14.51339 | 121.01605 | 86 ft | 12 kts | 135° |
| 2026-04-30 21:40 | 14.51286 | 121.01662 | 86 ft | 12 kts | 134° |
| 2026-04-30 21:40 | 14.51215 | 121.01734 | 86 ft | 13 kts | 135° |
| 2026-04-30 21:41 | 14.51146 | 121.01806 | 86 ft | 13 kts | 135° |
| 2026-04-30 21:41 | 14.51073 | 121.01881 | 86 ft | 14 kts | 135° |
| 2026-04-30 21:41 | 14.50991 | 121.01895 | 86 ft | 10 kts | 216° |
| 2026-04-30 21:41 | 14.50924 | 121.01818 | 86 ft | 13 kts | 235° |
| 2026-04-30 21:42 | 14.50891 | 121.01723 | 86 ft | 16 kts | 250° |
| 2026-04-30 21:42 | 14.50829 | 121.01607 | 86 ft | 20 kts | 240° |
| 2026-04-30 21:42 | 14.50747 | 121.01459 | 86 ft | 24 kts | 240° |
| 2026-04-30 21:42 | 14.50650 | 121.01285 | 86 ft | 28 kts | 241° |
| 2026-04-30 21:43 | 14.50538 | 121.01084 | 86 ft | 32 kts | 240° |
| 2026-04-30 21:43 | 14.50414 | 121.00861 | 86 ft | 36 kts | 240° |
| 2026-04-30 21:43 | 14.50278 | 121.00616 | 86 ft | 37 kts | 240° |
| 2026-04-30 21:43 | 14.50149 | 121.00385 | 86 ft | 32 kts | 240° |
| 2026-04-30 21:44 | 14.50049 | 121.00202 | 86 ft | 27 kts | 240° |
| 2026-04-30 21:44 | 14.49958 | 121.00040 | 86 ft | 22 kts | 240° |
| 2026-04-30 21:44 | 14.49888 | 120.99970 | 87 ft | 3 kts | 176° |
| 2026-04-30 21:44 | 14.49863 | 120.99977 | 87 ft | 4 kts | 160° |
| 2026-04-30 21:45 | 14.49830 | 120.99992 | 87 ft | 5 kts | 152° |
| 2026-04-30 21:45 | 14.49804 | 121.00023 | 87 ft | 7 kts | 104° |
| 2026-04-30 21:45 | 14.49828 | 121.00092 | 87 ft | 8 kts | 60° |
| 2026-04-30 21:45 | 14.49839 | 121.00112 | 87 ft | 0 kts | 60° |
| 2026-04-30 21:46 | 14.49851 | 121.00135 | 87 ft | 20 kts | 60° |
| 2026-04-30 21:47 | 14.50064 | 121.00520 | 86 ft | 102 kts | 59° |
| 2026-04-30 21:47 | 14.50575 | 121.01433 | 128 ft | 165 kts | 61° |
| 2026-04-30 21:47 | 14.51208 | 121.02537 | 549 ft | 175 kts | 61° |
| 2026-04-30 21:47 | 14.51789 | 121.03619 | 1277 ft | 174 kts | 65° |
| 2026-04-30 21:48 | 14.52362 | 121.04717 | 2102 ft | 175 kts | 60° |
| 2026-04-30 21:48 | 14.53005 | 121.05867 | 2762 ft | 187 kts | 63° |
| 2026-04-30 21:48 | 14.53685 | 121.07088 | 3419 ft | 208 kts | 62° |
| 2026-04-30 21:48 | 14.54483 | 121.08518 | 4256 ft | 230 kts | 62° |
| 2026-04-30 21:49 | 14.55318 | 121.10010 | 5189 ft | 249 kts | 62° |
| 2026-04-30 21:49 | 14.56242 | 121.11655 | 6318 ft | 263 kts | 60° |
| 2026-04-30 21:49 | 14.57552 | 121.13048 | 7524 ft | 271 kts | 32° |
| 2026-04-30 21:49 | 14.59385 | 121.13707 | 8241 ft | 281 kts | 8° |
| 2026-04-30 21:50 | 14.61435 | 121.13570 | 8809 ft | 291 kts | 358° |
| 2026-04-30 21:50 | 14.63512 | 121.13498 | 9499 ft | 293 kts | 2° |
| 2026-04-30 21:50 | 14.65640 | 121.13480 | 10202 ft | 296 kts | 2° |
| 2026-04-30 21:50 | 14.67890 | 121.13490 | 10628 ft | 311 kts | 2° |
| 2026-04-30 21:51 | 14.70249 | 121.13419 | 10858 ft | 332 kts | 352° |
| 2026-04-30 21:51 | 14.72638 | 121.12611 | 11025 ft | 353 kts | 341° |
| 2026-04-30 21:51 | 14.75144 | 121.11713 | 11240 ft | 371 kts | 342° |
| 2026-04-30 21:51 | 14.77707 | 121.10783 | 11715 ft | 376 kts | 342° |
| 2026-04-30 21:52 | 14.80348 | 121.09830 | 12002 ft | 382 kts | 342° |
| 2026-04-30 21:52 | 14.82945 | 121.08897 | 11863 ft | 378 kts | 342° |
| 2026-04-30 21:52 | 14.85573 | 121.07956 | 11970 ft | 378 kts | 342° |
| 2026-04-30 21:52 | 14.88197 | 121.07010 | 11937 ft | 380 kts | 342° |
| 2026-04-30 21:53 | 14.90883 | 121.06391 | 11939 ft | 380 kts | 358° |
| 2026-04-30 21:53 | 14.93623 | 121.06217 | 12488 ft | 381 kts | 356° |
| 2026-04-30 21:53 | 14.96341 | 121.06041 | 13165 ft | 380 kts | 358° |
| 2026-04-30 21:53 | 14.99054 | 121.05843 | 13611 ft | 385 kts | 357° |
| 2026-04-30 21:54 | 15.01828 | 121.05658 | 14106 ft | 388 kts | 357° |
| 2026-04-30 21:54 | 15.04657 | 121.05462 | 14589 ft | 391 kts | 357° |
| 2026-04-30 21:54 | 15.07503 | 121.05263 | 15045 ft | 394 kts | 357° |
| 2026-04-30 21:54 | 15.10365 | 121.05065 | 15493 ft | 397 kts | 356° |
| 2026-04-30 21:55 | 15.13223 | 121.04867 | 15930 ft | 399 kts | 356° |
| 2026-04-30 21:55 | 15.16163 | 121.04662 | 16371 ft | 402 kts | 356° |
| 2026-04-30 21:55 | 15.19094 | 121.04458 | 16783 ft | 405 kts | 356° |
| 2026-04-30 21:55 | 15.22010 | 121.04256 | 17210 ft | 407 kts | 356° |
| 2026-04-30 21:56 | 15.24961 | 121.04052 | 17590 ft | 410 kts | 356° |
| 2026-04-30 21:56 | 15.27944 | 121.03842 | 17962 ft | 413 kts | 356° |
| 2026-04-30 21:56 | 15.30933 | 121.03637 | 18327 ft | 416 kts | 356° |
| 2026-04-30 21:56 | 15.33951 | 121.03426 | 18692 ft | 419 kts | 356° |
| 2026-04-30 21:57 | 15.38037 | 121.03142 | 19189 ft | 422 kts | 356° |
| 2026-04-30 21:57 | 15.40085 | 121.03000 | 19426 ft | 423 kts | 356° |
| 2026-04-30 21:57 | 15.43131 | 121.02788 | 19752 ft | 426 kts | 356° |
| 2026-04-30 21:57 | 15.46251 | 121.02587 | 20090 ft | 427 kts | 359° |
| 2026-04-30 21:58 | 15.49346 | 121.03024 | 20345 ft | 430 kts | 18° |
| 2026-04-30 21:58 | 15.52205 | 121.04356 | 20584 ft | 432 kts | 26° |
| 2026-04-30 21:58 | 15.55048 | 121.05774 | 20858 ft | 436 kts | 26° |
| 2026-04-30 21:58 | 15.57898 | 121.07207 | 21162 ft | 438 kts | 26° |
| 2026-04-30 21:59 | 15.60779 | 121.08643 | 21510 ft | 438 kts | 26° |
| 2026-04-30 21:59 | 15.63679 | 121.10082 | 21770 ft | 441 kts | 25° |
| 2026-04-30 21:59 | 15.66607 | 121.11537 | 22020 ft | 444 kts | 25° |
| 2026-04-30 22:00 | 15.72415 | 121.14420 | 22600 ft | 446 kts | 25° |
| 2026-04-30 22:00 | 15.78348 | 121.17368 | 23103 ft | 450 kts | 25° |
| 2026-04-30 22:00 | 15.81293 | 121.18832 | 23337 ft | 452 kts | 25° |
| 2026-04-30 22:01 | 15.84265 | 121.20310 | 23587 ft | 454 kts | 25° |
| 2026-04-30 22:01 | 15.87244 | 121.21791 | 23838 ft | 456 kts | 25° |
| 2026-04-30 22:01 | 15.90236 | 121.23280 | 24086 ft | 457 kts | 25° |
| 2026-04-30 22:01 | 15.93230 | 121.24772 | 24297 ft | 459 kts | 25° |
| 2026-04-30 22:02 | 15.96206 | 121.26253 | 24546 ft | 461 kts | 25° |
| 2026-04-30 22:02 | 15.99220 | 121.27752 | 24812 ft | 462 kts | 24° |
| 2026-04-30 22:02 | 16.02215 | 121.29247 | 25021 ft | 464 kts | 24° |
| 2026-04-30 22:02 | 16.05250 | 121.30758 | 25246 ft | 465 kts | 24° |
| 2026-04-30 22:03 | 16.08324 | 121.32291 | 25456 ft | 467 kts | 24° |
| 2026-04-30 22:03 | 16.11394 | 121.33823 | 25691 ft | 469 kts | 24° |
| 2026-04-30 22:03 | 16.14474 | 121.35357 | 25902 ft | 470 kts | 24° |
| 2026-04-30 22:03 | 16.17580 | 121.36908 | 26125 ft | 472 kts | 24° |
| 2026-04-30 22:04 | 16.20658 | 121.38445 | 26331 ft | 473 kts | 24° |
| 2026-04-30 22:04 | 16.23776 | 121.40002 | 26538 ft | 475 kts | 24° |
| 2026-04-30 22:04 | 16.30038 | 121.43130 | 26925 ft | 478 kts | 24° |
| 2026-04-30 22:05 | 16.33174 | 121.44701 | 27110 ft | 480 kts | 24° |
| 2026-04-30 22:05 | 16.36339 | 121.46282 | 27311 ft | 482 kts | 24° |
| 2026-04-30 22:05 | 16.39464 | 121.47847 | 27478 ft | 484 kts | 24° |
| 2026-04-30 22:05 | 16.42654 | 121.49442 | 27684 ft | 485 kts | 24° |
| 2026-04-30 22:06 | 16.45818 | 121.51027 | 27860 ft | 487 kts | 24° |
| 2026-04-30 22:06 | 16.52200 | 121.54224 | 28189 ft | 490 kts | 23° |
| 2026-04-30 22:06 | 16.55425 | 121.55840 | 28381 ft | 491 kts | 23° |
| 2026-04-30 22:07 | 16.58642 | 121.57455 | 28530 ft | 493 kts | 23° |
| 2026-04-30 22:07 | 16.61873 | 121.59073 | 28719 ft | 493 kts | 23° |
| 2026-04-30 22:07 | 16.65131 | 121.60710 | 28898 ft | 494 kts | 23° |
| 2026-04-30 22:07 | 16.68395 | 121.62346 | 29037 ft | 496 kts | 23° |
| 2026-04-30 22:08 | 16.71665 | 121.63989 | 29209 ft | 496 kts | 23° |
| 2026-04-30 22:08 | 16.74928 | 121.65628 | 29373 ft | 497 kts | 24° |
| 2026-04-30 22:08 | 16.78190 | 121.67267 | 29536 ft | 498 kts | 24° |
| 2026-04-30 22:08 | 16.81444 | 121.68903 | 29750 ft | 497 kts | 24° |
| 2026-04-30 22:09 | 16.84715 | 121.70550 | 29924 ft | 498 kts | 23° |
| 2026-04-30 22:09 | 16.87958 | 121.72181 | 30139 ft | 497 kts | 23° |
| 2026-04-30 22:09 | 16.91185 | 121.73804 | 30330 ft | 497 kts | 23° |
| 2026-04-30 22:09 | 16.94426 | 121.75459 | 30500 ft | 498 kts | 25° |
| 2026-04-30 22:10 | 16.97689 | 121.77199 | 30684 ft | 498 kts | 25° |
| 2026-04-30 22:10 | 17.00947 | 121.78931 | 30836 ft | 499 kts | 25° |
| 2026-04-30 22:10 | 17.04143 | 121.80628 | 31005 ft | 499 kts | 25° |
| 2026-04-30 22:10 | 17.07400 | 121.82359 | 31171 ft | 499 kts | 25° |
| 2026-04-30 22:11 | 17.13951 | 121.85842 | 31517 ft | 499 kts | 25° |
| 2026-04-30 22:11 | 17.17195 | 121.87567 | 31692 ft | 499 kts | 25° |
| 2026-04-30 22:11 | 17.20432 | 121.89289 | 31871 ft | 498 kts | 25° |
| 2026-04-30 22:12 | 17.23662 | 121.91009 | 32030 ft | 498 kts | 25° |
| 2026-04-30 22:12 | 17.26891 | 121.92729 | 32180 ft | 498 kts | 25° |
| 2026-04-30 22:12 | 17.30133 | 121.94456 | 32330 ft | 498 kts | 25° |
| 2026-04-30 22:12 | 17.33340 | 121.96163 | 32473 ft | 499 kts | 25° |
| 2026-04-30 22:13 | 17.36561 | 121.97882 | 32617 ft | 499 kts | 25° |
| 2026-04-30 22:13 | 17.39829 | 121.99625 | 32767 ft | 499 kts | 24° |
| 2026-04-30 22:13 | 17.43047 | 122.01343 | 32955 ft | 498 kts | 24° |
| 2026-04-30 22:13 | 17.46291 | 122.03076 | 33113 ft | 498 kts | 24° |
| 2026-04-30 22:14 | 17.49533 | 122.04806 | 33305 ft | 498 kts | 24° |
| 2026-04-30 22:14 | 17.52751 | 122.06525 | 33489 ft | 497 kts | 24° |
| 2026-04-30 22:14 | 17.55996 | 122.08260 | 33649 ft | 497 kts | 24° |
| 2026-04-30 22:14 | 17.59247 | 122.09998 | 33819 ft | 497 kts | 24° |
| 2026-04-30 22:15 | 17.62475 | 122.11723 | 33986 ft | 496 kts | 24° |
| 2026-04-30 22:15 | 17.65674 | 122.13437 | 34152 ft | 496 kts | 24° |
| 2026-04-30 22:15 | 17.68887 | 122.15155 | 34307 ft | 496 kts | 24° |
| 2026-04-30 22:15 | 17.72098 | 122.16876 | 34484 ft | 495 kts | 24° |
| 2026-04-30 22:16 | 17.75318 | 122.18600 | 34666 ft | 494 kts | 24° |
| 2026-04-30 22:16 | 17.78546 | 122.20331 | 34831 ft | 493 kts | 24° |
| 2026-04-30 22:17 | 17.88214 | 122.25438 | 35304 ft | 491 kts | 23° |
| 2026-04-30 22:17 | 17.91435 | 122.27110 | 35464 ft | 491 kts | 23° |
| 2026-04-30 22:17 | 17.97856 | 122.30448 | 35783 ft | 489 kts | 23° |
| 2026-04-30 22:18 | 18.01034 | 122.32101 | 35941 ft | 488 kts | 23° |
| 2026-04-30 22:18 | 18.07431 | 122.35431 | 36267 ft | 486 kts | 23° |
| 2026-04-30 22:19 | 18.13746 | 122.38719 | 36577 ft | 484 kts | 23° |
| 2026-04-30 22:19 | 18.16885 | 122.40358 | 36733 ft | 482 kts | 23° |
| 2026-04-30 22:19 | 18.23175 | 122.43637 | 37042 ft | 479 kts | 22° |
| 2026-04-30 22:20 | 18.26318 | 122.45276 | 37199 ft | 477 kts | 22° |
| 2026-04-30 22:20 | 18.32514 | 122.48512 | 37511 ft | 472 kts | 22° |
| 2026-04-30 22:20 | 18.35572 | 122.50110 | 37669 ft | 470 kts | 22° |
| 2026-04-30 22:21 | 18.38609 | 122.51698 | 37823 ft | 467 kts | 22° |
| 2026-04-30 22:21 | 18.41675 | 122.53300 | 37966 ft | 464 kts | 22° |
| 2026-04-30 22:21 | 18.47730 | 122.56469 | 37970 ft | 465 kts | 22° |
| 2026-04-30 22:22 | 18.53808 | 122.59650 | 37970 ft | 465 kts | 22° |
| 2026-04-30 22:22 | 18.59923 | 122.62855 | 37966 ft | 466 kts | 22° |
| 2026-04-30 22:23 | 18.66039 | 122.66061 | 37954 ft | 466 kts | 22° |
| 2026-04-30 22:23 | 18.72141 | 122.69263 | 37956 ft | 466 kts | 22° |
| 2026-04-30 22:24 | 18.78192 | 122.72443 | 37959 ft | 466 kts | 22° |
| 2026-04-30 22:24 | 18.84226 | 122.75617 | 37965 ft | 465 kts | 22° |
| 2026-04-30 22:25 | 18.87266 | 122.77215 | 38077 ft | 462 kts | 22° |
| 2026-04-30 22:25 | 18.90279 | 122.78801 | 38227 ft | 459 kts | 22° |
| 2026-04-30 22:25 | 18.93253 | 122.80366 | 38367 ft | 455 kts | 22° |
| 2026-04-30 22:25 | 18.96185 | 122.81913 | 38500 ft | 451 kts | 22° |
| 2026-04-30 22:26 | 19.02043 | 122.85000 | 38772 ft | 442 kts | 22° |
| 2026-04-30 22:26 | 19.04888 | 122.86500 | 38914 ft | 437 kts | 22° |
| 2026-04-30 22:27 | 19.10555 | 122.89488 | 38941 ft | 431 kts | 22° |
| 2026-04-30 22:27 | 19.18925 | 122.93909 | 38950 ft | 424 kts | 21° |
| 2026-04-30 22:28 | 19.27225 | 122.98296 | 38953 ft | 427 kts | 22° |
| 2026-04-30 22:29 | 19.38463 | 123.04243 | 38967 ft | 433 kts | 22° |
| 2026-04-30 22:31 | 19.58594 | 123.14924 | 38975 ft | 448 kts | 22° |
| 2026-04-30 22:32 | 19.73467 | 123.22835 | 38972 ft | 463 kts | 22° |
| 2026-04-30 22:33 | 19.88830 | 123.31023 | 38972 ft | 479 kts | 22° |
| 2026-04-30 22:35 | 20.04677 | 123.39489 | 38980 ft | 494 kts | 22° |
| 2026-04-30 22:36 | 20.20985 | 123.48222 | 38972 ft | 503 kts | 22° |
| 2026-04-30 22:37 | 20.34134 | 123.55278 | 38978 ft | 507 kts | 22° |
| 2026-04-30 22:38 | 20.47326 | 123.62369 | 38985 ft | 505 kts | 22° |
| 2026-04-30 22:39 | 20.57206 | 123.67689 | 38972 ft | 505 kts | 23° |
| 2026-04-30 22:40 | 20.76909 | 123.78323 | 38985 ft | 504 kts | 22° |
| 2026-04-30 22:41 | 20.93336 | 123.87212 | 38988 ft | 505 kts | 22° |
| 2026-04-30 22:43 | 21.13122 | 123.97924 | 38986 ft | 504 kts | 22° |
| 2026-04-30 22:44 | 21.26258 | 124.05045 | 38994 ft | 504 kts | 22° |
| 2026-04-30 22:45 | 21.45937 | 124.15741 | 38995 ft | 503 kts | 22° |
| 2026-04-30 22:47 | 21.65626 | 124.26469 | 39001 ft | 504 kts | 22° |
| 2026-04-30 22:48 | 21.78745 | 124.33642 | 39007 ft | 503 kts | 21° |
| 2026-04-30 22:49 | 21.98344 | 124.44377 | 39013 ft | 503 kts | 21° |
| 2026-04-30 22:51 | 22.18030 | 124.55198 | 39019 ft | 503 kts | 21° |
| 2026-04-30 22:52 | 22.27852 | 124.60610 | 39028 ft | 503 kts | 21° |
| 2026-04-30 22:53 | 22.40877 | 124.67800 | 39016 ft | 504 kts | 21° |
| 2026-04-30 22:53 | 22.50734 | 124.73251 | 39020 ft | 505 kts | 21° |
| 2026-04-30 22:55 | 22.67136 | 124.82340 | 39024 ft | 504 kts | 21° |
| 2026-04-30 22:56 | 22.80214 | 124.89606 | 39026 ft | 503 kts | 21° |
| 2026-04-30 22:57 | 22.96552 | 124.98701 | 39029 ft | 504 kts | 21° |
| 2026-04-30 22:58 | 23.09648 | 125.06014 | 39032 ft | 503 kts | 21° |
| 2026-04-30 22:59 | 23.30254 | 125.17549 | 39035 ft | 502 kts | 21° |